Airfield :







YOU CAN JOIN US ON...

 
LOGIN :

Register | Disclaimer

   EN    FR    IT 

 









Legend :    VFR   Marginal VFR   IFR   Intensive IFR   Very Intensive IFR
Visi :
Ceiling :
>= 8 km
>= 3000ft
5 to 8 km
1000 to 3000 ft
1500m to 5 km
500 to 1000 ft
800 to 1500m
200 to 500 ft
< 800m
< 200 ft
Symbols :   Thunderstorms  Fog  Heavy snow  Heavy precipitations  Wind > 20 kt






- Airport Elevation : 203 ft
- IATA code : YQY


CYQY - Sydney

CURRENT METAR :
  • 231800Z 14021G27KT 15SM OVC014 09/06 A3019 RMK SC8 PRESFR SLP227

EXPIRED METARs :
  • 231700Z 15021G27KT 10SM OVC013 09/06 A3023 RMK SC8 SLP239
  • 231631Z 12019G29KT 10SM OVC013 09/06 A3023 RMK SC8 SLP240
  • 231600Z 13017G26KT 10SM SCT012 OVC016 09/06 A3024 RMK ST3SC5 PRESFR SLP245
  • 231555Z 13017G26KT 10SM SCT012 OVC015 09/06 A3024 RMK ST4SC4 PRESFR SLP245
  • 231542Z 13021G27KT 10SM -DZ BKN013 OVC017 09/06 A3026 RMK ST6SC2 SLP250
  • 231530Z 14017G25KT 15SM OVC017 09/06 A3026 RMK SC8 PRESFR SLP250

TAF TAF CYQY
Valid from the 23 at 18:00 until the 24 at 06:00 UTC


231738Z 2318/2406 14020G30KT P6SM OVC015
TEMPO 2318/2323 OVC025
FM232300 14020G35KT P6SM BKN015 BKN060 OVC180
TEMPO 2323/2402 P6SM -SHRA
FM240200 15020G35KT 2SM RA BR SCT008 OVC015
TEMPO 2402/2406 6SM -RA BR SCT015 OVC030 RMK NXT FCST BY 240000Z



MET'MAP, your aeronautical weather chart ! - Copyright ORBIFLY December 2007 - Disclaimer

ORBIFLY MET'MAP TEAM :

Programming & Development : Alexandra Zaïnal
Concept & Development : Baudouin d'Aumeries
Co-Development & Prog : Marc-Olivier Méhu
Technical & hardware support : Manuel Goepfert

Contact : metmap@orbifly.com




SOURCES & CREDITS :

   NOAA